Race profile

Great North Run
South Shields ENG
21 Sep 2003
Road
Half Mara
Acceptable for rankings, not record quality
Point-to-point course with net drop of 1.445 m/km
Only women race
Men: -27.73 sec (-1.31 sec/km)
Women: -90.37 sec (-4.28 sec/km)
Men: 692
Women: 934
$20,205
Great North Run

Results (men)

Finished Time Flags Given name Surname Alternate name Citizenship Birth date Prize money Actions
1 1:00:01 Hendrick Ramaala RSA 02 Feb 1972 $1,500
2 1:00:05 Jackson Koech Mengich KEN 26 Dec 1978 $1,000
3 1:01:49 Sergey Lebed UKR 15 Jul 1975 $700
4 1:02:00 Paul Kosgei Malakwen KEN 22 Apr 1978 $500
5 1:02:48 Julius Kibet Koskei KEN 06 Apr 1982 $400
6 1:02:52 Julio Rey ESP 13 Jan 1972 $300
7 1:02:55 Mark Steinle ENG 22 Nov 1974 $1,045
8 1:04:19 Kaesa Tadesse ENG 21 Aug 1974 $675
9 1:04:24 Claus-Bugge Hansen DEN 1970 $150
10 1:04:29 Carsten Sch├╝tz GER 28 Aug 1975 $100
11 1:04:39 Phillip Sly AUS 02 Sep 1974
12 1:04:47 Samuel Haughian ENG 09 Jul 1979 $320
13 1:05:26 Mark Hudspith ENG 19 Jan 1969 $240
14 1:05:27 Andrew Coleman ENG 29 Sep 1974 $190
15 1:05:37 Michael Dorfstatter AUT 1963
16 1:06:03 Luis Novo Silva POR 29 May 1970
17 1:06:08 Martin Dent AUS 08 Feb 1979
18 1:06:22 Embaye Hedrit GER 04 Jan 1976
19 1:06:29 James Walsh ENG 22 Sep 1981 $160
20 1:06:32 Adrian Musset ENG 14 Apr 1972 $125
21 1:06:51 Darrius Burrows ENG 08 Aug 1975 $110
22 1:06:56 Michael Coleman ENG 14 May 1978 $95
23 1:07:11 Andrew Caine SCO 17 Jun 1977 $80
26 1:08:16 Nathaniel Lane WAL 10 Apr 1976
27 1:08:22 Ayele Mezgebu ETH 06 Jan 1973
28 1:08:32 Gareth Raven ENG 09 May 1974

Results (women)

Finished Time Flags Given name Surname Alternate name Citizenship Birth date Prize money Actions
1 1:05:39.6 Paula Radcliffe ENG 17 Dec 1973 $7,295
2 1:07:32 Birhane Adere Debela ETH 21 Jul 1973 $1,000
3 1:07:51 Susan Chepkemei KEN 25 Jun 1975 $700
4 1:08:40 Sonia O'Sullivan IRL 28 Nov 1969 $500
5 1:09:12 Derartu Tulu ETH 21 Mar 1972 $400
6 1:09:19 Jelena Prokopcuka Celnova LAT 21 Sep 1976 $300
7 1:12:10 Fernanda Ribeiro POR 23 Jun 1969 $250
8 1:14:24 Sharon Morris ENG 05 Jul 1968 $675
9 1:14:57 Deborah Sullivan ENG 24 Jan 1972 $470
10 1:15:17 Kathryn Bailey ENG 25 Mar 1968 $340
11 1:15:22 Pauline Powell ENG 17 May 1973 $190
12 1:15:57 Susan Harrison ENG 06 Aug 1971 $160
13 1:16:34 Tracey Morris WAL 09 Sep 1967 $125
14 1:18:05 Julie O'Mara ENG 11 Feb 1976 $110
16 1:21:22 Christine Double AUS 10 Jun 1964
21 1:24:06 Jenny Murray GBR 09 Oct 1975
24 1:24:50 Maria Polizou GRE 10 Nov 1968